sensor_id;sensor_type;location;lat;lon;timestamp;P1;durP1;ratioP1;P2;durP2;ratioP2
42096;SDS011;27754;45.414;11.084;2024-01-27T00:01:59;259.33;;;60.15;;
42096;SDS011;27754;45.414;11.084;2024-01-27T00:04:27;242.55;;;63.75;;
42096;SDS011;27754;45.414;11.084;2024-01-27T00:06:54;231.77;;;59.72;;
42096;SDS011;27754;45.414;11.084;2024-01-27T00:09:21;263.42;;;61.22;;
42096;SDS011;27754;45.414;11.084;2024-01-27T00:11:48;302.63;;;61.90;;
42096;SDS011;27754;45.414;11.084;2024-01-27T00:14:16;227.50;;;61.63;;
42096;SDS011;27754;45.414;11.084;2024-01-27T00:16:42;298.95;;;65.88;;
42096;SDS011;27754;45.414;11.084;2024-01-27T00:19:09;352.65;;;66.47;;
42096;SDS011;27754;45.414;11.084;2024-01-27T00:21:38;325.65;;;62.92;;
42096;SDS011;27754;45.414;11.084;2024-01-27T00:24:05;172.70;;;56.17;;
42096;SDS011;27754;45.414;11.084;2024-01-27T00:26:32;261.70;;;60.88;;
42096;SDS011;27754;45.414;11.084;2024-01-27T00:29:00;224.15;;;59.05;;
42096;SDS011;27754;45.414;11.084;2024-01-27T00:31:26;337.33;;;66.65;;
42096;SDS011;27754;45.414;11.084;2024-01-27T00:33:53;233.93;;;61.20;;
42096;SDS011;27754;45.414;11.084;2024-01-27T00:36:20;320.63;;;65.65;;
42096;SDS011;27754;45.414;11.084;2024-01-27T00:38:48;325.92;;;66.47;;
42096;SDS011;27754;45.414;11.084;2024-01-27T00:41:17;299.65;;;63.13;;
42096;SDS011;27754;45.414;11.084;2024-01-27T00:43:45;400.15;;;69.38;;
42096;SDS011;27754;45.414;11.084;2024-01-27T00:46:12;209.25;;;57.95;;
42096;SDS011;27754;45.414;11.084;2024-01-27T00:48:39;240.80;;;61.63;;
42096;SDS011;27754;45.414;11.084;2024-01-27T00:51:06;309.58;;;63.60;;
42096;SDS011;27754;45.414;11.084;2024-01-27T00:53:33;371.92;;;66.68;;
42096;SDS011;27754;45.414;11.084;2024-01-27T00:56:00;337.33;;;65.28;;
42096;SDS011;27754;45.414;11.084;2024-01-27T00:58:27;265.70;;;62.70;;
42096;SDS011;27754;45.414;11.084;2024-01-27T01:00:55;176.02;;;59.30;;
42096;SDS011;27754;45.414;11.084;2024-01-27T01:03:22;383.98;;;71.25;;
42096;SDS011;27754;45.414;11.084;2024-01-27T01:05:49;371.23;;;71.20;;
42096;SDS011;27754;45.414;11.084;2024-01-27T01:08:17;241.98;;;64.97;;
42096;SDS011;27754;45.414;11.084;2024-01-27T01:10:44;372.25;;;72.07;;
42096;SDS011;27754;45.414;11.084;2024-01-27T01:13:11;266.98;;;66.78;;
42096;SDS011;27754;45.414;11.084;2024-01-27T01:15:38;409.30;;;74.45;;
42096;SDS011;27754;45.414;11.084;2024-01-27T01:18:05;319.75;;;71.63;;
42096;SDS011;27754;45.414;11.084;2024-01-27T01:20:33;206.48;;;62.25;;
42096;SDS011;27754;45.414;11.084;2024-01-27T01:23:00;257.92;;;65.40;;
42096;SDS011;27754;45.414;11.084;2024-01-27T01:25:27;334.33;;;69.03;;
42096;SDS011;27754;45.414;11.084;2024-01-27T01:27:54;205.75;;;62.47;;
42096;SDS011;27754;45.414;11.084;2024-01-27T01:30:21;424.88;;;71.80;;
42096;SDS011;27754;45.414;11.084;2024-01-27T01:32:48;242.52;;;63.00;;
42096;SDS011;27754;45.414;11.084;2024-01-27T01:35:15;291.58;;;67.10;;
42096;SDS011;27754;45.414;11.084;2024-01-27T01:37:42;300.67;;;66.43;;
42096;SDS011;27754;45.414;11.084;2024-01-27T01:40:09;322.27;;;65.78;;
42096;SDS011;27754;45.414;11.084;2024-01-27T01:42:36;325.10;;;68.85;;
42096;SDS011;27754;45.414;11.084;2024-01-27T01:45:03;190.88;;;54.25;;
42096;SDS011;27754;45.414;11.084;2024-01-27T01:47:31;238.13;;;61.58;;
42096;SDS011;27754;45.414;11.084;2024-01-27T01:49:58;155.80;;;57.28;;
42096;SDS011;27754;45.414;11.084;2024-01-27T01:52:25;296.73;;;64.20;;
42096;SDS011;27754;45.414;11.084;2024-01-27T01:54:53;138.57;;;57.75;;
42096;SDS011;27754;45.414;11.084;2024-01-27T01:57:20;289.20;;;64.63;;
42096;SDS011;27754;45.414;11.084;2024-01-27T01:59:47;270.30;;;61.60;;
42096;SDS011;27754;45.414;11.084;2024-01-27T02:02:14;315.90;;;62.92;;
42096;SDS011;27754;45.414;11.084;2024-01-27T02:04:42;365.67;;;66.60;;
42096;SDS011;27754;45.414;11.084;2024-01-27T02:07:10;143.93;;;55.30;;
42096;SDS011;27754;45.414;11.084;2024-01-27T02:09:38;295.30;;;62.30;;
42096;SDS011;27754;45.414;11.084;2024-01-27T02:12:05;377.33;;;67.57;;
42096;SDS011;27754;45.414;11.084;2024-01-27T02:14:33;213.25;;;57.13;;
42096;SDS011;27754;45.414;11.084;2024-01-27T02:17:00;358.35;;;64.10;;
42096;SDS011;27754;45.414;11.084;2024-01-27T02:19:27;224.48;;;55.97;;
42096;SDS011;27754;45.414;11.084;2024-01-27T02:21:55;147.30;;;52.65;;
42096;SDS011;27754;45.414;11.084;2024-01-27T02:24:22;145.65;;;52.65;;
42096;SDS011;27754;45.414;11.084;2024-01-27T02:26:49;403.63;;;67.03;;
42096;SDS011;27754;45.414;11.084;2024-01-27T02:29:16;192.95;;;55.35;;
42096;SDS011;27754;45.414;11.084;2024-01-27T02:31:43;125.07;;;52.53;;
42096;SDS011;27754;45.414;11.084;2024-01-27T02:34:10;143.77;;;51.90;;
42096;SDS011;27754;45.414;11.084;2024-01-27T02:36:38;197.93;;;54.33;;
42096;SDS011;27754;45.414;11.084;2024-01-27T02:39:05;166.25;;;51.83;;
42096;SDS011;27754;45.414;11.084;2024-01-27T02:41:33;153.00;;;55.13;;
42096;SDS011;27754;45.414;11.084;2024-01-27T02:44:05;126.38;;;52.55;;
42096;SDS011;27754;45.414;11.084;2024-01-27T02:46:32;166.70;;;53.67;;
42096;SDS011;27754;45.414;11.084;2024-01-27T02:48:59;241.18;;;54.53;;
42096;SDS011;27754;45.414;11.084;2024-01-27T02:51:26;206.27;;;53.45;;
42096;SDS011;27754;45.414;11.084;2024-01-27T02:53:53;410.23;;;61.35;;
42096;SDS011;27754;45.414;11.084;2024-01-27T02:56:20;227.98;;;54.03;;
42096;SDS011;27754;45.414;11.084;2024-01-27T02:58:47;253.50;;;53.78;;
42096;SDS011;27754;45.414;11.084;2024-01-27T03:01:14;331.98;;;57.28;;
42096;SDS011;27754;45.414;11.084;2024-01-27T03:03:41;482.15;;;65.45;;
42096;SDS011;27754;45.414;11.084;2024-01-27T03:06:09;172.18;;;52.53;;
42096;SDS011;27754;45.414;11.084;2024-01-27T03:08:36;220.82;;;52.58;;
42096;SDS011;27754;45.414;11.084;2024-01-27T03:11:03;208.02;;;52.20;;
42096;SDS011;27754;45.414;11.084;2024-01-27T03:13:30;246.38;;;52.85;;
42096;SDS011;27754;45.414;11.084;2024-01-27T03:15:56;262.67;;;53.17;;
42096;SDS011;27754;45.414;11.084;2024-01-27T03:18:23;445.02;;;60.05;;
42096;SDS011;27754;45.414;11.084;2024-01-27T03:20:51;227.82;;;49.63;;
42096;SDS011;27754;45.414;11.084;2024-01-27T03:23:18;241.65;;;50.28;;
42096;SDS011;27754;45.414;11.084;2024-01-27T03:25:45;331.50;;;55.17;;
42096;SDS011;27754;45.414;11.084;2024-01-27T03:28:12;204.00;;;48.97;;
42096;SDS011;27754;45.414;11.084;2024-01-27T03:30:39;117.75;;;44.80;;
42096;SDS011;27754;45.414;11.084;2024-01-27T03:33:09;171.50;;;48.03;;
42096;SDS011;27754;45.414;11.084;2024-01-27T03:35:39;152.48;;;46.42;;
42096;SDS011;27754;45.414;11.084;2024-01-27T03:38:06;127.93;;;46.47;;
42096;SDS011;27754;45.414;11.084;2024-01-27T03:40:33;113.55;;;47.10;;
42096;SDS011;27754;45.414;11.084;2024-01-27T03:43:00;115.43;;;45.35;;
42096;SDS011;27754;45.414;11.084;2024-01-27T03:45:27;121.38;;;46.58;;
42096;SDS011;27754;45.414;11.084;2024-01-27T03:47:54;273.00;;;53.45;;
42096;SDS011;27754;45.414;11.084;2024-01-27T03:50:21;136.80;;;46.67;;
42096;SDS011;27754;45.414;11.084;2024-01-27T03:52:48;119.18;;;47.60;;
42096;SDS011;27754;45.414;11.084;2024-01-27T03:55:15;111.57;;;45.05;;
42096;SDS011;27754;45.414;11.084;2024-01-27T03:57:42;142.07;;;46.45;;
42096;SDS011;27754;45.414;11.084;2024-01-27T04:00:09;170.98;;;46.95;;
42096;SDS011;27754;45.414;11.084;2024-01-27T04:02:38;122.90;;;43.20;;
42096;SDS011;27754;45.414;11.084;2024-01-27T04:05:07;141.65;;;42.45;;
42096;SDS011;27754;45.414;11.084;2024-01-27T04:07:34;225.25;;;48.30;;
42096;SDS011;27754;45.414;11.084;2024-01-27T04:10:02;113.85;;;41.95;;
42096;SDS011;27754;45.414;11.084;2024-01-27T04:12:30;161.60;;;44.72;;
42096;SDS011;27754;45.414;11.084;2024-01-27T04:14:58;258.67;;;50.00;;
42096;SDS011;27754;45.414;11.084;2024-01-27T04:17:26;162.23;;;44.20;;
42096;SDS011;27754;45.414;11.084;2024-01-27T04:19:53;244.40;;;50.53;;
42096;SDS011;27754;45.414;11.084;2024-01-27T04:22:20;312.48;;;54.58;;
42096;SDS011;27754;45.414;11.084;2024-01-27T04:24:47;219.60;;;51.20;;
42096;SDS011;27754;45.414;11.084;2024-01-27T04:27:15;296.05;;;52.85;;
42096;SDS011;27754;45.414;11.084;2024-01-27T04:29:42;189.73;;;51.17;;
42096;SDS011;27754;45.414;11.084;2024-01-27T04:32:08;124.43;;;54.03;;
42096;SDS011;27754;45.414;11.084;2024-01-27T04:34:35;236.40;;;58.13;;
42096;SDS011;27754;45.414;11.084;2024-01-27T04:37:03;145.75;;;53.15;;
42096;SDS011;27754;45.414;11.084;2024-01-27T04:39:30;156.40;;;58.45;;
42096;SDS011;27754;45.414;11.084;2024-01-27T04:41:57;166.05;;;55.03;;
42096;SDS011;27754;45.414;11.084;2024-01-27T04:44:24;232.73;;;58.97;;
42096;SDS011;27754;45.414;11.084;2024-01-27T04:46:51;204.10;;;58.88;;
42096;SDS011;27754;45.414;11.084;2024-01-27T04:49:18;120.20;;;54.05;;
42096;SDS011;27754;45.414;11.084;2024-01-27T04:51:46;139.85;;;57.88;;
42096;SDS011;27754;45.414;11.084;2024-01-27T04:54:13;163.60;;;59.60;;
42096;SDS011;27754;45.414;11.084;2024-01-27T04:56:40;267.33;;;64.80;;
42096;SDS011;27754;45.414;11.084;2024-01-27T04:59:07;217.13;;;62.55;;
42096;SDS011;27754;45.414;11.084;2024-01-27T05:01:34;236.93;;;62.22;;
42096;SDS011;27754;45.414;11.084;2024-01-27T05:04:01;133.30;;;56.35;;
42096;SDS011;27754;45.414;11.084;2024-01-27T05:06:28;262.55;;;64.82;;
42096;SDS011;27754;45.414;11.084;2024-01-27T05:08:55;196.25;;;59.28;;
42096;SDS011;27754;45.414;11.084;2024-01-27T05:11:28;217.38;;;59.25;;
42096;SDS011;27754;45.414;11.084;2024-01-27T05:14:00;133.63;;;53.40;;
42096;SDS011;27754;45.414;11.084;2024-01-27T05:16:27;114.20;;;51.08;;
42096;SDS011;27754;45.414;11.084;2024-01-27T05:18:54;157.82;;;52.85;;
42096;SDS011;27754;45.414;11.084;2024-01-27T05:21:22;245.15;;;58.35;;
42096;SDS011;27754;45.414;11.084;2024-01-27T05:23:49;162.63;;;51.78;;
42096;SDS011;27754;45.414;11.084;2024-01-27T05:26:16;142.80;;;48.90;;
42096;SDS011;27754;45.414;11.084;2024-01-27T05:28:42;147.15;;;47.70;;
42096;SDS011;27754;45.414;11.084;2024-01-27T05:31:10;125.18;;;44.03;;
42096;SDS011;27754;45.414;11.084;2024-01-27T05:33:37;123.35;;;43.90;;
42096;SDS011;27754;45.414;11.084;2024-01-27T05:36:06;155.57;;;47.55;;
42096;SDS011;27754;45.414;11.084;2024-01-27T05:38:33;107.57;;;45.92;;
42096;SDS011;27754;45.414;11.084;2024-01-27T05:41:03;264.63;;;53.88;;
42096;SDS011;27754;45.414;11.084;2024-01-27T05:43:30;101.32;;;44.67;;
42096;SDS011;27754;45.414;11.084;2024-01-27T05:45:58;198.32;;;48.28;;
42096;SDS011;27754;45.414;11.084;2024-01-27T05:48:25;122.15;;;44.15;;
42096;SDS011;27754;45.414;11.084;2024-01-27T05:50:59;107.88;;;42.05;;
42096;SDS011;27754;45.414;11.084;2024-01-27T05:53:27;172.68;;;46.95;;
42096;SDS011;27754;45.414;11.084;2024-01-27T05:55:55;209.55;;;46.72;;
42096;SDS011;27754;45.414;11.084;2024-01-27T05:58:23;243.75;;;50.35;;
42096;SDS011;27754;45.414;11.084;2024-01-27T06:00:50;124.97;;;44.28;;
42096;SDS011;27754;45.414;11.084;2024-01-27T06:03:18;150.13;;;46.38;;
42096;SDS011;27754;45.414;11.084;2024-01-27T06:05:45;186.10;;;49.30;;
42096;SDS011;27754;45.414;11.084;2024-01-27T06:08:12;115.00;;;45.72;;
42096;SDS011;27754;45.414;11.084;2024-01-27T06:10:40;154.15;;;46.85;;
42096;SDS011;27754;45.414;11.084;2024-01-27T06:13:07;119.15;;;45.58;;
42096;SDS011;27754;45.414;11.084;2024-01-27T06:15:34;160.25;;;49.40;;
42096;SDS011;27754;45.414;11.084;2024-01-27T06:18:01;160.25;;;49.33;;
42096;SDS011;27754;45.414;11.084;2024-01-27T06:20:28;263.77;;;56.03;;
42096;SDS011;27754;45.414;11.084;2024-01-27T06:22:55;187.43;;;51.25;;
42096;SDS011;27754;45.414;11.084;2024-01-27T06:25:22;316.85;;;56.20;;
42096;SDS011;27754;45.414;11.084;2024-01-27T06:27:49;128.88;;;48.90;;
42096;SDS011;27754;45.414;11.084;2024-01-27T06:30:16;213.80;;;52.63;;
42096;SDS011;27754;45.414;11.084;2024-01-27T06:32:44;328.13;;;57.55;;
42096;SDS011;27754;45.414;11.084;2024-01-27T06:35:11;202.93;;;50.67;;
42096;SDS011;27754;45.414;11.084;2024-01-27T06:37:38;214.23;;;51.88;;
42096;SDS011;27754;45.414;11.084;2024-01-27T06:40:06;130.73;;;49.05;;
42096;SDS011;27754;45.414;11.084;2024-01-27T06:42:35;178.70;;;50.75;;
42096;SDS011;27754;45.414;11.084;2024-01-27T06:45:02;205.93;;;52.03;;
42096;SDS011;27754;45.414;11.084;2024-01-27T06:47:30;377.38;;;61.63;;
42096;SDS011;27754;45.414;11.084;2024-01-27T06:49:57;165.52;;;48.75;;
42096;SDS011;27754;45.414;11.084;2024-01-27T06:52:24;125.13;;;46.88;;
42096;SDS011;27754;45.414;11.084;2024-01-27T06:54:51;179.45;;;50.70;;
42096;SDS011;27754;45.414;11.084;2024-01-27T06:57:21;105.68;;;45.92;;
42096;SDS011;27754;45.414;11.084;2024-01-27T06:59:50;135.20;;;47.80;;
42096;SDS011;27754;45.414;11.084;2024-01-27T07:02:23;219.57;;;51.97;;
42096;SDS011;27754;45.414;11.084;2024-01-27T07:04:53;129.27;;;50.15;;
42096;SDS011;27754;45.414;11.084;2024-01-27T07:07:26;114.85;;;48.20;;
42096;SDS011;27754;45.414;11.084;2024-01-27T07:09:54;148.70;;;45.78;;
42096;SDS011;27754;45.414;11.084;2024-01-27T07:12:22;117.57;;;48.33;;
42096;SDS011;27754;45.414;11.084;2024-01-27T07:14:49;166.38;;;47.05;;
42096;SDS011;27754;45.414;11.084;2024-01-27T07:17:21;229.43;;;48.95;;
42096;SDS011;27754;45.414;11.084;2024-01-27T07:19:48;166.70;;;44.17;;
42096;SDS011;27754;45.414;11.084;2024-01-27T07:22:15;270.30;;;51.53;;
42096;SDS011;27754;45.414;11.084;2024-01-27T07:24:42;212.73;;;47.17;;
42096;SDS011;27754;45.414;11.084;2024-01-27T07:27:11;293.90;;;51.58;;
42096;SDS011;27754;45.414;11.084;2024-01-27T07:29:39;157.75;;;44.53;;
42096;SDS011;27754;45.414;11.084;2024-01-27T07:32:06;89.13;;;44.38;;
42096;SDS011;27754;45.414;11.084;2024-01-27T07:34:43;161.25;;;44.95;;
42096;SDS011;27754;45.414;11.084;2024-01-27T07:37:10;114.40;;;42.90;;
42096;SDS011;27754;45.414;11.084;2024-01-27T07:39:37;164.82;;;44.53;;
42096;SDS011;27754;45.414;11.084;2024-01-27T07:42:04;146.40;;;42.55;;
42096;SDS011;27754;45.414;11.084;2024-01-27T07:44:32;211.13;;;44.80;;
42096;SDS011;27754;45.414;11.084;2024-01-27T07:46:59;111.97;;;44.28;;
42096;SDS011;27754;45.414;11.084;2024-01-27T07:49:26;121.60;;;43.30;;
42096;SDS011;27754;45.414;11.084;2024-01-27T07:51:53;126.35;;;43.42;;
42096;SDS011;27754;45.414;11.084;2024-01-27T07:54:21;172.82;;;44.55;;
42096;SDS011;27754;45.414;11.084;2024-01-27T07:56:49;160.23;;;45.42;;
42096;SDS011;27754;45.414;11.084;2024-01-27T07:59:16;111.35;;;42.05;;
42096;SDS011;27754;45.414;11.084;2024-01-27T08:01:43;150.50;;;42.97;;
42096;SDS011;27754;45.414;11.084;2024-01-27T08:04:10;162.80;;;42.67;;
42096;SDS011;27754;45.414;11.084;2024-01-27T08:06:48;139.65;;;45.92;;
42096;SDS011;27754;45.414;11.084;2024-01-27T08:09:17;138.35;;;42.55;;
42096;SDS011;27754;45.414;11.084;2024-01-27T08:11:45;148.93;;;43.40;;
42096;SDS011;27754;45.414;11.084;2024-01-27T08:14:12;212.82;;;45.80;;
42096;SDS011;27754;45.414;11.084;2024-01-27T08:16:39;164.35;;;44.08;;
42096;SDS011;27754;45.414;11.084;2024-01-27T08:19:06;137.40;;;42.20;;
42096;SDS011;27754;45.414;11.084;2024-01-27T08:21:33;129.77;;;43.10;;
42096;SDS011;27754;45.414;11.084;2024-01-27T08:24:00;95.22;;;41.40;;
42096;SDS011;27754;45.414;11.084;2024-01-27T08:26:27;157.02;;;42.85;;
42096;SDS011;27754;45.414;11.084;2024-01-27T08:28:54;99.85;;;39.83;;
42096;SDS011;27754;45.414;11.084;2024-01-27T08:31:22;131.38;;;40.50;;
42096;SDS011;27754;45.414;11.084;2024-01-27T08:33:49;116.32;;;43.83;;
42096;SDS011;27754;45.414;11.084;2024-01-27T08:36:17;162.27;;;42.95;;
42096;SDS011;27754;45.414;11.084;2024-01-27T08:38:44;87.93;;;41.13;;
42096;SDS011;27754;45.414;11.084;2024-01-27T08:41:11;94.97;;;38.28;;
42096;SDS011;27754;45.414;11.084;2024-01-27T08:43:39;87.00;;;40.50;;
42096;SDS011;27754;45.414;11.084;2024-01-27T08:46:06;90.18;;;37.72;;
42096;SDS011;27754;45.414;11.084;2024-01-27T08:48:38;156.73;;;38.90;;
42096;SDS011;27754;45.414;11.084;2024-01-27T08:51:09;75.55;;;34.63;;
42096;SDS011;27754;45.414;11.084;2024-01-27T08:53:38;135.25;;;37.35;;
42096;SDS011;27754;45.414;11.084;2024-01-27T08:56:05;95.35;;;33.55;;
42096;SDS011;27754;45.414;11.084;2024-01-27T08:58:32;87.65;;;34.13;;
42096;SDS011;27754;45.414;11.084;2024-01-27T09:00:59;219.95;;;39.65;;
42096;SDS011;27754;45.414;11.084;2024-01-27T09:03:31;118.88;;;35.13;;
42096;SDS011;27754;45.414;11.084;2024-01-27T09:05:58;98.97;;;36.13;;
42096;SDS011;27754;45.414;11.084;2024-01-27T09:08:25;69.53;;;36.90;;
42096;SDS011;27754;45.414;11.084;2024-01-27T09:10:53;113.35;;;38.92;;
42096;SDS011;27754;45.414;11.084;2024-01-27T09:13:20;134.05;;;39.15;;
42096;SDS011;27754;45.414;11.084;2024-01-27T09:15:46;113.10;;;37.90;;
42096;SDS011;27754;45.414;11.084;2024-01-27T09:18:15;90.97;;;36.30;;
42096;SDS011;27754;45.414;11.084;2024-01-27T09:20:43;85.07;;;39.33;;
42096;SDS011;27754;45.414;11.084;2024-01-27T09:23:10;107.28;;;40.78;;
42096;SDS011;27754;45.414;11.084;2024-01-27T09:25:38;133.35;;;38.83;;
42096;SDS011;27754;45.414;11.084;2024-01-27T09:28:05;108.55;;;39.60;;
42096;SDS011;27754;45.414;11.084;2024-01-27T09:30:35;99.35;;;38.88;;
42096;SDS011;27754;45.414;11.084;2024-01-27T09:33:05;91.50;;;36.38;;
42096;SDS011;27754;45.414;11.084;2024-01-27T09:35:32;113.18;;;40.15;;
42096;SDS011;27754;45.414;11.084;2024-01-27T09:37:59;90.40;;;39.88;;
42096;SDS011;27754;45.414;11.084;2024-01-27T09:40:26;98.75;;;38.50;;
42096;SDS011;27754;45.414;11.084;2024-01-27T09:42:53;151.63;;;41.25;;
42096;SDS011;27754;45.414;11.084;2024-01-27T09:45:25;119.63;;;39.35;;
42096;SDS011;27754;45.414;11.084;2024-01-27T09:47:53;84.70;;;41.13;;
42096;SDS011;27754;45.414;11.084;2024-01-27T09:50:25;101.90;;;41.65;;
42096;SDS011;27754;45.414;11.084;2024-01-27T09:52:52;119.50;;;43.47;;
42096;SDS011;27754;45.414;11.084;2024-01-27T09:55:20;104.35;;;44.28;;
42096;SDS011;27754;45.414;11.084;2024-01-27T09:57:48;80.40;;;40.67;;
42096;SDS011;27754;45.414;11.084;2024-01-27T10:00:15;111.18;;;43.08;;
42096;SDS011;27754;45.414;11.084;2024-01-27T10:02:43;100.25;;;41.55;;
42096;SDS011;27754;45.414;11.084;2024-01-27T10:05:13;87.55;;;44.20;;
42096;SDS011;27754;45.414;11.084;2024-01-27T10:07:41;89.65;;;45.60;;
42096;SDS011;27754;45.414;11.084;2024-01-27T10:10:09;117.05;;;44.80;;
42096;SDS011;27754;45.414;11.084;2024-01-27T10:12:42;99.43;;;46.38;;
42096;SDS011;27754;45.414;11.084;2024-01-27T10:15:20;84.15;;;45.00;;
42096;SDS011;27754;45.414;11.084;2024-01-27T10:17:48;154.90;;;49.60;;
42096;SDS011;27754;45.414;11.084;2024-01-27T10:20:15;94.28;;;43.03;;
42096;SDS011;27754;45.414;11.084;2024-01-27T10:22:45;117.75;;;46.83;;
42096;SDS011;27754;45.414;11.084;2024-01-27T10:25:12;127.65;;;47.20;;
42096;SDS011;27754;45.414;11.084;2024-01-27T10:27:39;154.63;;;47.92;;
42096;SDS011;27754;45.414;11.084;2024-01-27T10:30:14;104.93;;;49.05;;
42096;SDS011;27754;45.414;11.084;2024-01-27T10:32:43;130.88;;;52.30;;
42096;SDS011;27754;45.414;11.084;2024-01-27T10:35:10;103.85;;;53.58;;
42096;SDS011;27754;45.414;11.084;2024-01-27T10:37:38;110.22;;;52.38;;
42096;SDS011;27754;45.414;11.084;2024-01-27T10:40:06;115.70;;;54.10;;
42096;SDS011;27754;45.414;11.084;2024-01-27T10:42:34;104.60;;;52.30;;
42096;SDS011;27754;45.414;11.084;2024-01-27T10:45:03;104.25;;;50.55;;
42096;SDS011;27754;45.414;11.084;2024-01-27T10:47:31;118.68;;;55.45;;
42096;SDS011;27754;45.414;11.084;2024-01-27T10:50:00;115.05;;;53.35;;
42096;SDS011;27754;45.414;11.084;2024-01-27T10:52:28;122.90;;;54.80;;
42096;SDS011;27754;45.414;11.084;2024-01-27T10:55:01;112.80;;;55.38;;
42096;SDS011;27754;45.414;11.084;2024-01-27T10:57:30;103.57;;;55.25;;
42096;SDS011;27754;45.414;11.084;2024-01-27T10:59:58;110.70;;;57.88;;
42096;SDS011;27754;45.414;11.084;2024-01-27T11:02:28;111.20;;;56.08;;
42096;SDS011;27754;45.414;11.084;2024-01-27T11:05:05;109.13;;;56.42;;
42096;SDS011;27754;45.414;11.084;2024-01-27T11:07:34;114.50;;;57.63;;
42096;SDS011;27754;45.414;11.084;2024-01-27T11:10:01;121.05;;;54.70;;
42096;SDS011;27754;45.414;11.084;2024-01-27T11:12:29;102.60;;;54.63;;
42096;SDS011;27754;45.414;11.084;2024-01-27T11:14:57;106.85;;;58.72;;
42096;SDS011;27754;45.414;11.084;2024-01-27T11:17:27;105.22;;;58.90;;
42096;SDS011;27754;45.414;11.084;2024-01-27T11:19:55;107.05;;;58.00;;
42096;SDS011;27754;45.414;11.084;2024-01-27T11:22:27;112.65;;;61.90;;
42096;SDS011;27754;45.414;11.084;2024-01-27T11:27:37;105.93;;;59.85;;
42096;SDS011;27754;45.414;11.084;2024-01-27T11:32:56;107.53;;;60.25;;
42096;SDS011;27754;45.414;11.084;2024-01-27T11:35:24;103.57;;;57.10;;
42096;SDS011;27754;45.414;11.084;2024-01-27T11:37:51;102.88;;;56.45;;
42096;SDS011;27754;45.414;11.084;2024-01-27T11:40:18;105.30;;;57.67;;
42096;SDS011;27754;45.414;11.084;2024-01-27T11:45:23;105.72;;;59.90;;
42096;SDS011;27754;45.414;11.084;2024-01-27T11:47:50;105.03;;;60.30;;
42096;SDS011;27754;45.414;11.084;2024-01-27T11:50:17;113.70;;;62.28;;
42096;SDS011;27754;45.414;11.084;2024-01-27T11:52:45;96.22;;;58.05;;
42096;SDS011;27754;45.414;11.084;2024-01-27T11:55:12;99.25;;;58.58;;
42096;SDS011;27754;45.414;11.084;2024-01-27T11:57:45;105.60;;;59.28;;
42096;SDS011;27754;45.414;11.084;2024-01-27T12:00:12;99.63;;;58.15;;
42096;SDS011;27754;45.414;11.084;2024-01-27T12:02:39;101.38;;;58.80;;
42096;SDS011;27754;45.414;11.084;2024-01-27T12:05:10;101.43;;;58.05;;
42096;SDS011;27754;45.414;11.084;2024-01-27T12:07:38;105.35;;;60.58;;
42096;SDS011;27754;45.414;11.084;2024-01-27T12:10:06;96.85;;;57.03;;
42096;SDS011;27754;45.414;11.084;2024-01-27T12:12:34;103.60;;;60.17;;
42096;SDS011;27754;45.414;11.084;2024-01-27T12:15:01;99.65;;;60.20;;
42096;SDS011;27754;45.414;11.084;2024-01-27T12:17:30;101.00;;;60.45;;
42096;SDS011;27754;45.414;11.084;2024-01-27T12:19:57;100.43;;;58.83;;
42096;SDS011;27754;45.414;11.084;2024-01-27T12:22:25;106.20;;;62.10;;
42096;SDS011;27754;45.414;11.084;2024-01-27T12:24:54;108.43;;;61.75;;
42096;SDS011;27754;45.414;11.084;2024-01-27T12:27:22;100.30;;;60.15;;
42096;SDS011;27754;45.414;11.084;2024-01-27T12:29:49;100.47;;;60.17;;
42096;SDS011;27754;45.414;11.084;2024-01-27T12:32:17;105.25;;;61.75;;
42096;SDS011;27754;45.414;11.084;2024-01-27T12:34:44;104.78;;;61.25;;
42096;SDS011;27754;45.414;11.084;2024-01-27T12:37:12;103.95;;;62.03;;
42096;SDS011;27754;45.414;11.084;2024-01-27T12:39:45;104.95;;;62.17;;
42096;SDS011;27754;45.414;11.084;2024-01-27T12:42:12;99.43;;;60.30;;
42096;SDS011;27754;45.414;11.084;2024-01-27T12:44:39;112.80;;;63.08;;
42096;SDS011;27754;45.414;11.084;2024-01-27T12:47:06;111.22;;;65.72;;
42096;SDS011;27754;45.414;11.084;2024-01-27T12:49:34;110.38;;;64.65;;
42096;SDS011;27754;45.414;11.084;2024-01-27T12:52:02;112.15;;;64.45;;
42096;SDS011;27754;45.414;11.084;2024-01-27T12:54:30;108.72;;;64.22;;
42096;SDS011;27754;45.414;11.084;2024-01-27T12:56:57;112.07;;;65.68;;
42096;SDS011;27754;45.414;11.084;2024-01-27T12:59:24;109.45;;;65.18;;
42096;SDS011;27754;45.414;11.084;2024-01-27T13:01:51;113.53;;;65.85;;
42096;SDS011;27754;45.414;11.084;2024-01-27T13:04:19;107.40;;;63.95;;
42096;SDS011;27754;45.414;11.084;2024-01-27T13:06:46;111.88;;;66.22;;
42096;SDS011;27754;45.414;11.084;2024-01-27T13:09:13;110.30;;;65.18;;
42096;SDS011;27754;45.414;11.084;2024-01-27T13:11:40;118.65;;;69.30;;
42096;SDS011;27754;45.414;11.084;2024-01-27T13:14:07;120.18;;;70.60;;
42096;SDS011;27754;45.414;11.084;2024-01-27T13:16:35;121.95;;;69.22;;
42096;SDS011;27754;45.414;11.084;2024-01-27T13:19:03;122.90;;;71.57;;
42096;SDS011;27754;45.414;11.084;2024-01-27T13:21:30;117.63;;;69.18;;
42096;SDS011;27754;45.414;11.084;2024-01-27T13:23:57;116.50;;;69.97;;
42096;SDS011;27754;45.414;11.084;2024-01-27T13:26:24;120.95;;;69.63;;
42096;SDS011;27754;45.414;11.084;2024-01-27T13:28:53;121.35;;;72.57;;
42096;SDS011;27754;45.414;11.084;2024-01-27T13:31:20;117.57;;;70.50;;
42096;SDS011;27754;45.414;11.084;2024-01-27T13:33:47;124.63;;;71.97;;
42096;SDS011;27754;45.414;11.084;2024-01-27T13:36:15;124.82;;;73.07;;
42096;SDS011;27754;45.414;11.084;2024-01-27T13:38:43;125.55;;;72.30;;
42096;SDS011;27754;45.414;11.084;2024-01-27T13:41:10;127.15;;;75.65;;
42096;SDS011;27754;45.414;11.084;2024-01-27T13:43:37;125.88;;;72.85;;
42096;SDS011;27754;45.414;11.084;2024-01-27T13:46:04;126.30;;;74.70;;
42096;SDS011;27754;45.414;11.084;2024-01-27T13:48:32;132.38;;;77.28;;
42096;SDS011;27754;45.414;11.084;2024-01-27T13:51:00;130.93;;;78.47;;
42096;SDS011;27754;45.414;11.084;2024-01-27T13:53:27;124.63;;;74.22;;
42096;SDS011;27754;45.414;11.084;2024-01-27T13:56:11;127.75;;;74.68;;
42096;SDS011;27754;45.414;11.084;2024-01-27T13:58:38;127.35;;;75.15;;
42096;SDS011;27754;45.414;11.084;2024-01-27T14:01:06;125.15;;;72.75;;
42096;SDS011;27754;45.414;11.084;2024-01-27T14:03:35;124.00;;;74.18;;
42096;SDS011;27754;45.414;11.084;2024-01-27T14:06:04;124.15;;;73.97;;
42096;SDS011;27754;45.414;11.084;2024-01-27T14:08:32;124.68;;;72.78;;
42096;SDS011;27754;45.414;11.084;2024-01-27T14:10:59;130.00;;;75.53;;